sensor_id;sensor_type;location;lat;lon;timestamp;temperature;humidity
76293;DHT22;67256;51.154;4.164;2024-01-11T00:02:03;-1.10;73.50
76293;DHT22;67256;51.154;4.164;2024-01-11T00:04:29;-1.30;74.10
76293;DHT22;67256;51.154;4.164;2024-01-11T00:06:54;-1.30;74.40
76293;DHT22;67256;51.154;4.164;2024-01-11T00:09:20;-1.30;75.00
76293;DHT22;67256;51.154;4.164;2024-01-11T00:11:46;-1.30;74.80
76293;DHT22;67256;51.154;4.164;2024-01-11T00:14:11;-1.20;74.70
76293;DHT22;67256;51.154;4.164;2024-01-11T00:16:37;-1.10;73.70
76293;DHT22;67256;51.154;4.164;2024-01-11T00:19:03;-1.20;74.00
76293;DHT22;67256;51.154;4.164;2024-01-11T00:21:29;-1.30;74.50
76293;DHT22;67256;51.154;4.164;2024-01-11T00:23:55;-1.30;74.70
76293;DHT22;67256;51.154;4.164;2024-01-11T00:26:21;-1.40;75.20
76293;DHT22;67256;51.154;4.164;2024-01-11T00:28:47;-1.40;75.40
76293;DHT22;67256;51.154;4.164;2024-01-11T00:31:12;-1.30;75.20
76293;DHT22;67256;51.154;4.164;2024-01-11T00:33:39;-1.20;74.70
76293;DHT22;67256;51.154;4.164;2024-01-11T00:36:05;-1.30;74.80
76293;DHT22;67256;51.154;4.164;2024-01-11T00:38:30;-1.20;74.60
76293;DHT22;67256;51.154;4.164;2024-01-11T00:40:56;-1.20;75.00
76293;DHT22;67256;51.154;4.164;2024-01-11T00:43:22;-1.10;74.80
76293;DHT22;67256;51.154;4.164;2024-01-11T00:45:48;-1.20;74.80
76293;DHT22;67256;51.154;4.164;2024-01-11T00:48:13;-1.20;75.30
76293;DHT22;67256;51.154;4.164;2024-01-11T00:50:39;-1.20;75.20
76293;DHT22;67256;51.154;4.164;2024-01-11T00:53:05;-1.30;75.70
76293;DHT22;67256;51.154;4.164;2024-01-11T00:55:30;-1.30;75.90
76293;DHT22;67256;51.154;4.164;2024-01-11T00:57:56;-1.40;76.00
76293;DHT22;67256;51.154;4.164;2024-01-11T01:00:22;-1.40;76.00
76293;DHT22;67256;51.154;4.164;2024-01-11T01:02:48;-1.50;76.50
76293;DHT22;67256;51.154;4.164;2024-01-11T01:05:14;-1.40;76.30
76293;DHT22;67256;51.154;4.164;2024-01-11T01:07:40;-1.40;76.30
76293;DHT22;67256;51.154;4.164;2024-01-11T01:10:06;-1.50;76.60
76293;DHT22;67256;51.154;4.164;2024-01-11T01:12:33;-1.50;76.50
76293;DHT22;67256;51.154;4.164;2024-01-11T01:14:59;-1.50;76.60
76293;DHT22;67256;51.154;4.164;2024-01-11T01:17:25;-1.60;77.00
76293;DHT22;67256;51.154;4.164;2024-01-11T01:19:50;-1.60;77.00
76293;DHT22;67256;51.154;4.164;2024-01-11T01:22:16;-1.60;76.90
76293;DHT22;67256;51.154;4.164;2024-01-11T01:24:41;-1.70;77.20
76293;DHT22;67256;51.154;4.164;2024-01-11T01:27:07;-1.40;76.70
76293;DHT22;67256;51.154;4.164;2024-01-11T01:29:33;-1.40;76.30
76293;DHT22;67256;51.154;4.164;2024-01-11T01:31:59;-1.50;76.30
76293;DHT22;67256;51.154;4.164;2024-01-11T01:34:27;-1.50;76.50
76293;DHT22;67256;51.154;4.164;2024-01-11T01:36:52;-1.30;76.20
76293;DHT22;67256;51.154;4.164;2024-01-11T01:39:18;-1.50;76.60
76293;DHT22;67256;51.154;4.164;2024-01-11T01:41:44;-1.50;76.60
76293;DHT22;67256;51.154;4.164;2024-01-11T01:44:09;-1.40;76.50
76293;DHT22;67256;51.154;4.164;2024-01-11T01:46:36;-1.50;76.90
76293;DHT22;67256;51.154;4.164;2024-01-11T01:49:02;-1.50;77.00
76293;DHT22;67256;51.154;4.164;2024-01-11T01:51:29;-1.40;76.70
76293;DHT22;67256;51.154;4.164;2024-01-11T01:53:57;-1.40;76.40
76293;DHT22;67256;51.154;4.164;2024-01-11T01:56:24;-1.20;76.10
76293;DHT22;67256;51.154;4.164;2024-01-11T01:58:51;-1.20;76.10
76293;DHT22;67256;51.154;4.164;2024-01-11T02:01:17;-1.40;76.60
76293;DHT22;67256;51.154;4.164;2024-01-11T02:03:46;-1.50;77.00
76293;DHT22;67256;51.154;4.164;2024-01-11T02:06:14;-1.50;77.60
76293;DHT22;67256;51.154;4.164;2024-01-11T02:08:42;-1.40;76.80
76293;DHT22;67256;51.154;4.164;2024-01-11T02:11:10;-1.20;76.50
76293;DHT22;67256;51.154;4.164;2024-01-11T02:13:37;-1.20;76.20
76293;DHT22;67256;51.154;4.164;2024-01-11T02:16:05;-1.20;76.50
76293;DHT22;67256;51.154;4.164;2024-01-11T02:18:35;-1.20;76.60
76293;DHT22;67256;51.154;4.164;2024-01-11T02:21:01;-1.10;76.30
76293;DHT22;67256;51.154;4.164;2024-01-11T02:23:29;-1.10;76.30
76293;DHT22;67256;51.154;4.164;2024-01-11T02:25:56;-1.20;76.00
76293;DHT22;67256;51.154;4.164;2024-01-11T02:28:22;-1.30;75.80
76293;DHT22;67256;51.154;4.164;2024-01-11T02:30:47;-1.60;77.00
76293;DHT22;67256;51.154;4.164;2024-01-11T02:33:13;-1.80;78.00
76293;DHT22;67256;51.154;4.164;2024-01-11T02:35:42;-1.90;78.80
76293;DHT22;67256;51.154;4.164;2024-01-11T02:38:08;-2.10;79.50
76293;DHT22;67256;51.154;4.164;2024-01-11T02:40:34;-2.00;79.50
76293;DHT22;67256;51.154;4.164;2024-01-11T02:43:10;-2.00;79.50
76293;DHT22;67256;51.154;4.164;2024-01-11T02:45:36;-1.90;79.10
76293;DHT22;67256;51.154;4.164;2024-01-11T02:48:02;-1.90;78.80
76293;DHT22;67256;51.154;4.164;2024-01-11T02:50:28;-1.80;79.10
76293;DHT22;67256;51.154;4.164;2024-01-11T02:52:54;-1.80;78.80
76293;DHT22;67256;51.154;4.164;2024-01-11T02:55:19;-1.80;78.70
76293;DHT22;67256;51.154;4.164;2024-01-11T02:57:45;-2.00;79.70
76293;DHT22;67256;51.154;4.164;2024-01-11T03:00:11;-2.00;79.80
76293;DHT22;67256;51.154;4.164;2024-01-11T03:02:38;-1.90;79.70
76293;DHT22;67256;51.154;4.164;2024-01-11T03:05:05;-1.90;79.60
76293;DHT22;67256;51.154;4.164;2024-01-11T03:07:31;-2.00;80.00
76293;DHT22;67256;51.154;4.164;2024-01-11T03:09:58;-1.90;80.00
76293;DHT22;67256;51.154;4.164;2024-01-11T03:12:24;-1.80;79.80
76293;DHT22;67256;51.154;4.164;2024-01-11T03:14:51;-1.70;79.20
76293;DHT22;67256;51.154;4.164;2024-01-11T03:17:17;-1.80;79.30
76293;DHT22;67256;51.154;4.164;2024-01-11T03:19:43;-1.90;79.50
76293;DHT22;67256;51.154;4.164;2024-01-11T03:22:11;-2.00;80.00
76293;DHT22;67256;51.154;4.164;2024-01-11T03:24:38;-2.00;80.30
76293;DHT22;67256;51.154;4.164;2024-01-11T03:27:06;-2.10;80.90
76293;DHT22;67256;51.154;4.164;2024-01-11T03:29:32;-2.10;81.00
76293;DHT22;67256;51.154;4.164;2024-01-11T03:31:58;-2.10;81.70
76293;DHT22;67256;51.154;4.164;2024-01-11T03:34:23;-2.00;80.60
76293;DHT22;67256;51.154;4.164;2024-01-11T03:36:49;-1.80;80.00
76293;DHT22;67256;51.154;4.164;2024-01-11T03:39:15;-1.70;79.30
76293;DHT22;67256;51.154;4.164;2024-01-11T03:41:44;-1.90;79.20
76293;DHT22;67256;51.154;4.164;2024-01-11T03:44:12;-1.90;80.10
76293;DHT22;67256;51.154;4.164;2024-01-11T03:46:38;-1.80;79.60
76293;DHT22;67256;51.154;4.164;2024-01-11T03:49:04;-1.70;78.90
76293;DHT22;67256;51.154;4.164;2024-01-11T03:51:30;-1.70;78.80
76293;DHT22;67256;51.154;4.164;2024-01-11T03:53:55;-1.70;78.20
76293;DHT22;67256;51.154;4.164;2024-01-11T03:56:21;-1.60;78.80
76293;DHT22;67256;51.154;4.164;2024-01-11T03:58:47;-1.60;78.50
76293;DHT22;67256;51.154;4.164;2024-01-11T04:01:12;-1.70;78.80
76293;DHT22;67256;51.154;4.164;2024-01-11T04:03:38;-1.80;79.70
76293;DHT22;67256;51.154;4.164;2024-01-11T04:06:04;-1.80;80.10
76293;DHT22;67256;51.154;4.164;2024-01-11T04:08:30;-2.20;81.30
76293;DHT22;67256;51.154;4.164;2024-01-11T04:10:56;-2.20;82.20
76293;DHT22;67256;51.154;4.164;2024-01-11T04:13:22;-2.20;82.50
76293;DHT22;67256;51.154;4.164;2024-01-11T04:15:47;-2.20;82.60
76293;DHT22;67256;51.154;4.164;2024-01-11T04:18:13;-2.20;82.80
76293;DHT22;67256;51.154;4.164;2024-01-11T04:20:39;-2.30;82.50
76293;DHT22;67256;51.154;4.164;2024-01-11T04:23:05;-2.50;83.70
76293;DHT22;67256;51.154;4.164;2024-01-11T04:25:31;-2.40;84.20
76293;DHT22;67256;51.154;4.164;2024-01-11T04:27:57;-2.40;84.50
76293;DHT22;67256;51.154;4.164;2024-01-11T04:30:22;-2.40;84.20
76293;DHT22;67256;51.154;4.164;2024-01-11T04:32:48;-2.30;84.00
76293;DHT22;67256;51.154;4.164;2024-01-11T04:35:14;-2.40;84.50
76293;DHT22;67256;51.154;4.164;2024-01-11T04:37:40;-2.50;84.70
76293;DHT22;67256;51.154;4.164;2024-01-11T04:40:06;-2.50;84.90
76293;DHT22;67256;51.154;4.164;2024-01-11T04:42:33;-2.60;85.10
76293;DHT22;67256;51.154;4.164;2024-01-11T04:44:58;-2.40;85.10
76293;DHT22;67256;51.154;4.164;2024-01-11T04:47:24;-2.30;84.50
76293;DHT22;67256;51.154;4.164;2024-01-11T04:49:50;-2.40;84.80
76293;DHT22;67256;51.154;4.164;2024-01-11T04:52:16;-2.50;84.80
76293;DHT22;67256;51.154;4.164;2024-01-11T04:54:41;-2.40;85.20
76293;DHT22;67256;51.154;4.164;2024-01-11T04:57:07;-2.50;85.10
76293;DHT22;67256;51.154;4.164;2024-01-11T04:59:33;-2.20;84.40
76293;DHT22;67256;51.154;4.164;2024-01-11T05:01:58;-2.40;84.50
76293;DHT22;67256;51.154;4.164;2024-01-11T05:04:25;-2.40;84.80
76293;DHT22;67256;51.154;4.164;2024-01-11T05:06:51;-2.30;84.70
76293;DHT22;67256;51.154;4.164;2024-01-11T05:09:17;-2.30;84.50
76293;DHT22;67256;51.154;4.164;2024-01-11T05:11:43;-2.40;84.90
76293;DHT22;67256;51.154;4.164;2024-01-11T05:14:12;-2.40;84.40
76293;DHT22;67256;51.154;4.164;2024-01-11T05:16:38;-2.40;85.10
76293;DHT22;67256;51.154;4.164;2024-01-11T05:19:04;-2.30;84.70
76293;DHT22;67256;51.154;4.164;2024-01-11T05:21:30;-2.30;84.60
76293;DHT22;67256;51.154;4.164;2024-01-11T05:23:56;-2.40;84.40
76293;DHT22;67256;51.154;4.164;2024-01-11T05:26:21;-2.60;85.20
76293;DHT22;67256;51.154;4.164;2024-01-11T05:28:47;-2.60;85.30
76293;DHT22;67256;51.154;4.164;2024-01-11T05:31:15;-2.50;85.50
76293;DHT22;67256;51.154;4.164;2024-01-11T05:33:41;-2.30;84.50
76293;DHT22;67256;51.154;4.164;2024-01-11T05:36:07;-2.50;84.40
76293;DHT22;67256;51.154;4.164;2024-01-11T05:38:34;-2.60;85.30
76293;DHT22;67256;51.154;4.164;2024-01-11T05:41:00;-2.70;86.20
76293;DHT22;67256;51.154;4.164;2024-01-11T05:43:26;-2.70;86.20
76293;DHT22;67256;51.154;4.164;2024-01-11T05:45:52;-2.80;86.50
76293;DHT22;67256;51.154;4.164;2024-01-11T05:48:18;-2.80;86.80
76293;DHT22;67256;51.154;4.164;2024-01-11T05:50:44;-2.80;87.30
76293;DHT22;67256;51.154;4.164;2024-01-11T05:53:11;-2.70;86.60
76293;DHT22;67256;51.154;4.164;2024-01-11T05:55:37;-2.70;86.30
76293;DHT22;67256;51.154;4.164;2024-01-11T05:58:03;-2.60;86.30
76293;DHT22;67256;51.154;4.164;2024-01-11T06:00:32;-2.60;86.30
76293;DHT22;67256;51.154;4.164;2024-01-11T06:02:58;-2.60;86.60
76293;DHT22;67256;51.154;4.164;2024-01-11T06:05:24;-2.60;86.20
76293;DHT22;67256;51.154;4.164;2024-01-11T06:07:49;-2.70;86.40
76293;DHT22;67256;51.154;4.164;2024-01-11T06:10:15;-2.70;85.90
76293;DHT22;67256;51.154;4.164;2024-01-11T06:12:41;-2.50;86.40
76293;DHT22;67256;51.154;4.164;2024-01-11T06:15:07;-2.50;85.50
76293;DHT22;67256;51.154;4.164;2024-01-11T06:17:33;-2.70;86.00
76293;DHT22;67256;51.154;4.164;2024-01-11T06:19:58;-2.60;86.30
76293;DHT22;67256;51.154;4.164;2024-01-11T06:22:24;-2.60;86.80
76293;DHT22;67256;51.154;4.164;2024-01-11T06:24:50;-2.60;86.50
76293;DHT22;67256;51.154;4.164;2024-01-11T06:27:16;-2.60;86.50
76293;DHT22;67256;51.154;4.164;2024-01-11T06:29:42;-2.60;86.10
76293;DHT22;67256;51.154;4.164;2024-01-11T06:32:08;-2.60;86.10
76293;DHT22;67256;51.154;4.164;2024-01-11T06:34:35;-2.60;86.40
76293;DHT22;67256;51.154;4.164;2024-01-11T06:37:01;-2.60;86.60
76293;DHT22;67256;51.154;4.164;2024-01-11T06:39:28;-2.60;86.50
76293;DHT22;67256;51.154;4.164;2024-01-11T06:41:55;-2.50;86.20
76293;DHT22;67256;51.154;4.164;2024-01-11T06:44:21;-2.50;86.20
76293;DHT22;67256;51.154;4.164;2024-01-11T06:46:46;-2.40;85.70
76293;DHT22;67256;51.154;4.164;2024-01-11T06:49:12;-2.50;86.40
76293;DHT22;67256;51.154;4.164;2024-01-11T06:51:38;-2.50;86.30
76293;DHT22;67256;51.154;4.164;2024-01-11T06:54:04;-2.40;86.30
76293;DHT22;67256;51.154;4.164;2024-01-11T06:56:30;-2.50;86.60
76293;DHT22;67256;51.154;4.164;2024-01-11T06:58:56;-2.70;87.50
76293;DHT22;67256;51.154;4.164;2024-01-11T07:01:22;-2.70;87.30
76293;DHT22;67256;51.154;4.164;2024-01-11T07:03:48;-2.60;87.00
76293;DHT22;67256;51.154;4.164;2024-01-11T07:06:15;-2.30;86.30
76293;DHT22;67256;51.154;4.164;2024-01-11T07:08:41;-2.30;86.00
76293;DHT22;67256;51.154;4.164;2024-01-11T07:11:07;-2.50;86.80
76293;DHT22;67256;51.154;4.164;2024-01-11T07:13:33;-2.60;87.40
76293;DHT22;67256;51.154;4.164;2024-01-11T07:15:59;-2.50;87.20
76293;DHT22;67256;51.154;4.164;2024-01-11T07:18:26;-2.50;86.90
76293;DHT22;67256;51.154;4.164;2024-01-11T07:20:52;-2.30;86.30
76293;DHT22;67256;51.154;4.164;2024-01-11T07:23:18;-2.40;86.70
76293;DHT22;67256;51.154;4.164;2024-01-11T07:25:44;-2.60;87.20
76293;DHT22;67256;51.154;4.164;2024-01-11T07:28:09;-2.70;87.80
76293;DHT22;67256;51.154;4.164;2024-01-11T07:30:35;-2.70;88.30
76293;DHT22;67256;51.154;4.164;2024-01-11T07:33:01;-2.70;88.30
76293;DHT22;67256;51.154;4.164;2024-01-11T07:35:27;-2.90;88.90
76293;DHT22;67256;51.154;4.164;2024-01-11T07:37:53;-2.80;89.70
76293;DHT22;67256;51.154;4.164;2024-01-11T07:40:19;-3.00;89.70
76293;DHT22;67256;51.154;4.164;2024-01-11T07:42:45;-3.00;90.20
76293;DHT22;67256;51.154;4.164;2024-01-11T07:45:11;-2.90;89.80
76293;DHT22;67256;51.154;4.164;2024-01-11T07:47:38;-2.80;89.40
76293;DHT22;67256;51.154;4.164;2024-01-11T07:50:08;-2.80;89.70
76293;DHT22;67256;51.154;4.164;2024-01-11T07:52:38;-2.80;90.10
76293;DHT22;67256;51.154;4.164;2024-01-11T07:55:09;-2.80;89.90
76293;DHT22;67256;51.154;4.164;2024-01-11T07:57:36;-2.60;89.60
76293;DHT22;67256;51.154;4.164;2024-01-11T08:00:03;-2.40;88.40
76293;DHT22;67256;51.154;4.164;2024-01-11T08:02:32;-2.20;87.10
76293;DHT22;67256;51.154;4.164;2024-01-11T08:04:58;-2.50;87.80
76293;DHT22;67256;51.154;4.164;2024-01-11T08:07:26;-2.60;89.20
76293;DHT22;67256;51.154;4.164;2024-01-11T08:09:51;-2.50;89.10
76293;DHT22;67256;51.154;4.164;2024-01-11T08:12:17;-2.50;88.30
76293;DHT22;67256;51.154;4.164;2024-01-11T08:14:43;-2.60;88.90
76293;DHT22;67256;51.154;4.164;2024-01-11T08:17:10;-2.60;89.20
76293;DHT22;67256;51.154;4.164;2024-01-11T08:19:36;-2.60;89.00
76293;DHT22;67256;51.154;4.164;2024-01-11T08:22:01;-2.60;89.10
76293;DHT22;67256;51.154;4.164;2024-01-11T08:24:27;-2.60;89.10
76293;DHT22;67256;51.154;4.164;2024-01-11T08:26:54;-2.80;89.50
76293;DHT22;67256;51.154;4.164;2024-01-11T08:29:19;-2.70;89.60
76293;DHT22;67256;51.154;4.164;2024-01-11T08:31:46;-2.80;89.90
76293;DHT22;67256;51.154;4.164;2024-01-11T08:34:12;-2.60;90.10
76293;DHT22;67256;51.154;4.164;2024-01-11T08:36:37;-2.70;90.10
76293;DHT22;67256;51.154;4.164;2024-01-11T08:39:06;-2.70;89.90
76293;DHT22;67256;51.154;4.164;2024-01-11T08:41:34;-2.80;90.00
76293;DHT22;67256;51.154;4.164;2024-01-11T08:44:01;-2.60;89.60
76293;DHT22;67256;51.154;4.164;2024-01-11T08:46:28;-2.40;88.40
76293;DHT22;67256;51.154;4.164;2024-01-11T08:48:56;-2.60;89.30
76293;DHT22;67256;51.154;4.164;2024-01-11T08:51:22;-2.70;90.00
76293;DHT22;67256;51.154;4.164;2024-01-11T08:53:48;-2.40;89.10
76293;DHT22;67256;51.154;4.164;2024-01-11T08:56:14;-2.40;88.60
76293;DHT22;67256;51.154;4.164;2024-01-11T08:58:42;-2.50;89.30
76293;DHT22;67256;51.154;4.164;2024-01-11T09:01:07;-2.50;89.90
76293;DHT22;67256;51.154;4.164;2024-01-11T09:03:36;-2.50;90.00
76293;DHT22;67256;51.154;4.164;2024-01-11T09:06:05;-2.60;90.00
76293;DHT22;67256;51.154;4.164;2024-01-11T09:08:31;-2.30;88.80
76293;DHT22;67256;51.154;4.164;2024-01-11T09:10:57;-2.20;88.80
76293;DHT22;67256;51.154;4.164;2024-01-11T09:13:24;-2.10;87.60
76293;DHT22;67256;51.154;4.164;2024-01-11T09:15:51;-2.00;87.20
76293;DHT22;67256;51.154;4.164;2024-01-11T09:18:17;-2.00;87.20
76293;DHT22;67256;51.154;4.164;2024-01-11T09:20:43;-2.10;87.60
76293;DHT22;67256;51.154;4.164;2024-01-11T09:23:09;-2.10;87.90
76293;DHT22;67256;51.154;4.164;2024-01-11T09:25:35;-2.20;88.30
76293;DHT22;67256;51.154;4.164;2024-01-11T09:28:01;-2.10;87.70
76293;DHT22;67256;51.154;4.164;2024-01-11T09:30:27;-2.20;88.20
76293;DHT22;67256;51.154;4.164;2024-01-11T09:32:53;-2.00;88.10
76293;DHT22;67256;51.154;4.164;2024-01-11T09:35:19;-1.90;87.60
76293;DHT22;67256;51.154;4.164;2024-01-11T09:37:44;-1.90;87.80
76293;DHT22;67256;51.154;4.164;2024-01-11T09:40:12;-1.80;87.20
76293;DHT22;67256;51.154;4.164;2024-01-11T09:42:38;-1.80;86.50
76293;DHT22;67256;51.154;4.164;2024-01-11T09:45:15;-1.60;86.20
76293;DHT22;67256;51.154;4.164;2024-01-11T09:47:44;-1.40;85.00
76293;DHT22;67256;51.154;4.164;2024-01-11T09:50:16;-1.50;85.20
76293;DHT22;67256;51.154;4.164;2024-01-11T09:52:49;-1.50;86.20
76293;DHT22;67256;51.154;4.164;2024-01-11T09:55:16;-1.70;87.70
76293;DHT22;67256;51.154;4.164;2024-01-11T09:57:47;-1.80;88.20
76293;DHT22;67256;51.154;4.164;2024-01-11T10:00:21;-1.90;90.00
76293;DHT22;67256;51.154;4.164;2024-01-11T10:02:47;-1.70;90.00
76293;DHT22;67256;51.154;4.164;2024-01-11T10:05:13;-1.80;89.90
76293;DHT22;67256;51.154;4.164;2024-01-11T10:07:39;-1.70;90.10
76293;DHT22;67256;51.154;4.164;2024-01-11T10:10:06;-1.80;90.30
76293;DHT22;67256;51.154;4.164;2024-01-11T10:12:35;-1.80;90.60
76293;DHT22;67256;51.154;4.164;2024-01-11T10:15:08;-1.70;90.70
76293;DHT22;67256;51.154;4.164;2024-01-11T10:17:44;-1.60;90.60
76293;DHT22;67256;51.154;4.164;2024-01-11T10:20:12;-1.60;90.70
76293;DHT22;67256;51.154;4.164;2024-01-11T10:22:40;-1.50;91.00
76293;DHT22;67256;51.154;4.164;2024-01-11T10:25:13;-1.40;90.80
76293;DHT22;67256;51.154;4.164;2024-01-11T10:27:44;-1.50;90.70
76293;DHT22;67256;51.154;4.164;2024-01-11T10:30:13;-1.60;91.10
76293;DHT22;67256;51.154;4.164;2024-01-11T10:32:41;-1.70;91.30
76293;DHT22;67256;51.154;4.164;2024-01-11T10:35:07;-1.60;91.20
76293;DHT22;67256;51.154;4.164;2024-01-11T10:37:33;-1.60;91.20
76293;DHT22;67256;51.154;4.164;2024-01-11T10:40:03;-1.50;91.20
76293;DHT22;67256;51.154;4.164;2024-01-11T10:42:39;-1.50;91.20
76293;DHT22;67256;51.154;4.164;2024-01-11T10:45:10;-1.40;91.10
76293;DHT22;67256;51.154;4.164;2024-01-11T10:47:55;-1.30;91.00
76293;DHT22;67256;51.154;4.164;2024-01-11T10:50:23;-1.40;91.20
76293;DHT22;67256;51.154;4.164;2024-01-11T10:53:03;-1.40;91.40
76293;DHT22;67256;51.154;4.164;2024-01-11T10:55:34;-1.40;91.60
76293;DHT22;67256;51.154;4.164;2024-01-11T10:58:00;-1.20;91.20
76293;DHT22;67256;51.154;4.164;2024-01-11T11:00:28;-1.10;90.40
76293;DHT22;67256;51.154;4.164;2024-01-11T11:02:55;-1.10;90.20
76293;DHT22;67256;51.154;4.164;2024-01-11T11:05:22;-1.10;90.20
76293;DHT22;67256;51.154;4.164;2024-01-11T11:07:50;-1.00;90.30
76293;DHT22;67256;51.154;4.164;2024-01-11T11:10:21;-1.00;90.20
76293;DHT22;67256;51.154;4.164;2024-01-11T11:12:48;-1.00;90.00
76293;DHT22;67256;51.154;4.164;2024-01-11T11:15:14;-1.00;89.70
76293;DHT22;67256;51.154;4.164;2024-01-11T11:17:43;-0.90;90.30
76293;DHT22;67256;51.154;4.164;2024-01-11T11:20:11;-0.80;90.20
76293;DHT22;67256;51.154;4.164;2024-01-11T11:22:40;-0.70;90.00
76293;DHT22;67256;51.154;4.164;2024-01-11T11:27:34;-0.80;90.40
76293;DHT22;67256;51.154;4.164;2024-01-11T11:30:00;-0.80;90.20
76293;DHT22;67256;51.154;4.164;2024-01-11T11:32:35;-0.70;90.00
76293;DHT22;67256;51.154;4.164;2024-01-11T11:35:01;-0.60;89.90
76293;DHT22;67256;51.154;4.164;2024-01-11T11:37:29;-0.60;90.10
76293;DHT22;67256;51.154;4.164;2024-01-11T11:39:58;-0.50;90.10
76293;DHT22;67256;51.154;4.164;2024-01-11T11:42:23;-0.60;90.00
76293;DHT22;67256;51.154;4.164;2024-01-11T11:44:51;-0.60;90.30
76293;DHT22;67256;51.154;4.164;2024-01-11T11:47:21;-0.60;90.10
76293;DHT22;67256;51.154;4.164;2024-01-11T11:50:10;-0.40;90.00
76293;DHT22;67256;51.154;4.164;2024-01-11T11:52:40;-0.40;89.40
76293;DHT22;67256;51.154;4.164;2024-01-11T11:55:08;-0.40;89.70
76293;DHT22;67256;51.154;4.164;2024-01-11T11:57:35;-0.30;88.90
76293;DHT22;67256;51.154;4.164;2024-01-11T12:00:01;-0.30;89.40
76293;DHT22;67256;51.154;4.164;2024-01-11T12:02:32;-0.30;89.50
76293;DHT22;67256;51.154;4.164;2024-01-11T12:04:58;-0.30;88.60
76293;DHT22;67256;51.154;4.164;2024-01-11T12:07:24;-0.20;88.40
76293;DHT22;67256;51.154;4.164;2024-01-11T12:09:51;-0.20;88.00
76293;DHT22;67256;51.154;4.164;2024-01-11T12:12:18;-0.30;88.00
76293;DHT22;67256;51.154;4.164;2024-01-11T12:14:49;-0.30;88.30
76293;DHT22;67256;51.154;4.164;2024-01-11T12:17:15;-0.30;88.30
76293;DHT22;67256;51.154;4.164;2024-01-11T12:19:41;-0.30;88.30
76293;DHT22;67256;51.154;4.164;2024-01-11T12:22:07;-0.20;89.00
76293;DHT22;67256;51.154;4.164;2024-01-11T12:24:34;-0.20;88.40
76293;DHT22;67256;51.154;4.164;2024-01-11T12:27:00;-0.20;87.90
76293;DHT22;67256;51.154;4.164;2024-01-11T12:29:29;-0.10;88.00
76293;DHT22;67256;51.154;4.164;2024-01-11T12:31:59;0.00;87.80
76293;DHT22;67256;51.154;4.164;2024-01-11T12:34:26;0.00;88.30
76293;DHT22;67256;51.154;4.164;2024-01-11T12:36:55;0.10;88.00
76293;DHT22;67256;51.154;4.164;2024-01-11T12:39:25;0.10;88.40
76293;DHT22;67256;51.154;4.164;2024-01-11T12:41:54;0.20;87.90
76293;DHT22;67256;51.154;4.164;2024-01-11T12:44:21;0.20;88.10
76293;DHT22;67256;51.154;4.164;2024-01-11T12:46:48;0.30;87.70
76293;DHT22;67256;51.154;4.164;2024-01-11T12:49:17;0.40;87.30
76293;DHT22;67256;51.154;4.164;2024-01-11T12:51:43;0.40;86.80
76293;DHT22;67256;51.154;4.164;2024-01-11T12:54:12;0.40;86.10
76293;DHT22;67256;51.154;4.164;2024-01-11T12:56:44;0.50;85.90
76293;DHT22;67256;51.154;4.164;2024-01-11T12:59:10;0.50;83.70
76293;DHT22;67256;51.154;4.164;2024-01-11T13:01:38;0.40;80.60
76293;DHT22;67256;51.154;4.164;2024-01-11T13:04:04;0.50;80.20
76293;DHT22;67256;51.154;4.164;2024-01-11T13:06:33;0.50;80.80
76293;DHT22;67256;51.154;4.164;2024-01-11T13:09:01;0.50;80.60
76293;DHT22;67256;51.154;4.164;2024-01-11T13:11:27;0.60;79.50
76293;DHT22;67256;51.154;4.164;2024-01-11T13:13:54;0.70;81.20
76293;DHT22;67256;51.154;4.164;2024-01-11T13:16:20;0.60;81.40
76293;DHT22;67256;51.154;4.164;2024-01-11T13:18:46;0.60;81.40
76293;DHT22;67256;51.154;4.164;2024-01-11T13:21:12;0.70;80.90
76293;DHT22;67256;51.154;4.164;2024-01-11T13:23:38;0.70;79.80
76293;DHT22;67256;51.154;4.164;2024-01-11T13:26:06;0.70;79.10
76293;DHT22;67256;51.154;4.164;2024-01-11T13:28:32;0.70;78.00
76293;DHT22;67256;51.154;4.164;2024-01-11T13:30:59;0.80;78.20
76293;DHT22;67256;51.154;4.164;2024-01-11T13:33:25;0.90;77.70
76293;DHT22;67256;51.154;4.164;2024-01-11T13:35:51;0.80;76.40
76293;DHT22;67256;51.154;4.164;2024-01-11T13:38:17;0.70;76.90
76293;DHT22;67256;51.154;4.164;2024-01-11T13:40:43;0.60;78.50
76293;DHT22;67256;51.154;4.164;2024-01-11T13:43:09;0.60;80.60
76293;DHT22;67256;51.154;4.164;2024-01-11T13:45:36;0.70;82.30
76293;DHT22;67256;51.154;4.164;2024-01-11T13:48:05;0.70;84.30
76293;DHT22;67256;51.154;4.164;2024-01-11T13:50:31;0.80;85.00
76293;DHT22;67256;51.154;4.164;2024-01-11T13:52:57;0.90;85.70
76293;DHT22;67256;51.154;4.164;2024-01-11T13:55:23;0.70;87.00
76293;DHT22;67256;51.154;4.164;2024-01-11T13:57:50;0.70;88.40
76293;DHT22;67256;51.154;4.164;2024-01-11T14:00:16;0.70;89.20
76293;DHT22;67256;51.154;4.164;2024-01-11T14:02:44;0.80;90.30
76293;DHT22;67256;51.154;4.164;2024-01-11T14:05:14;0.80;91.30
76293;DHT22;67256;51.154;4.164;2024-01-11T14:07:42;0.70;93.00
76293;DHT22;67256;51.154;4.164;2024-01-11T14:10:08;0.60;94.30
76293;DHT22;67256;51.154;4.164;2024-01-11T14:12:35;0.50;95.00
76293;DHT22;67256;51.154;4.164;2024-01-11T14:15:02;0.50;95.50
76293;DHT22;67256;51.154;4.164;2024-01-11T14:17:29;0.40;95.80
76293;DHT22;67256;51.154;4.164;2024-01-11T14:19:55;0.40;96.20
76293;DHT22;67256;51.154;4.164;2024-01-11T14:22:20;0.40;96.50
76293;DHT22;67256;51.154;4.164;2024-01-11T14:24:47;0.30;96.80
76293;DHT22;67256;51.154;4.164;2024-01-11T14:27:13;0.30;96.90
76293;DHT22;67256;51.154;4.164;2024-01-11T14:29:40;0.30;96.90
76293;DHT22;67256;51.154;4.164;2024-01-11T14:32:05;0.40;97.10
76293;DHT22;67256;51.154;4.164;2024-01-11T14:34:31;0.50;96.90
76293;DHT22;67256;51.154;4.164;2024-01-11T14:36:58;0.70;96.70
76293;DHT22;67256;51.154;4.164;2024-01-11T14:39:24;0.90;96.20
76293;DHT22;67256;51.154;4.164;2024-01-11T14:41:52;0.90;96.10
76293;DHT22;67256;51.154;4.164;2024-01-11T14:44:18;0.90;96.10
76293;DHT22;67256;51.154;4.164;2024-01-11T14:46:44;1.10;96.00
76293;DHT22;67256;51.154;4.164;2024-01-11T14:49:10;1.10;96.00
76293;DHT22;67256;51.154;4.164;2024-01-11T14:51:36;1.20;95.80
76293;DHT22;67256;51.154;4.164;2024-01-11T14:54:03;1.30;95.40
76293;DHT22;67256;51.154;4.164;2024-01-11T14:56:30;1.30;95.50
76293;DHT22;67256;51.154;4.164;2024-01-11T14:58:56;1.20;95.70
76293;DHT22;67256;51.154;4.164;2024-01-11T15:01:21;1.30;95.70
76293;DHT22;67256;51.154;4.164;2024-01-11T15:03:47;1.40;95.60
76293;DHT22;67256;51.154;4.164;2024-01-11T15:06:14;1.30;95.90
76293;DHT22;67256;51.154;4.164;2024-01-11T15:08:39;1.30;95.90
76293;DHT22;67256;51.154;4.164;2024-01-11T15:11:05;1.30;96.00
76293;DHT22;67256;51.154;4.164;2024-01-11T15:13:31;1.30;96.00
76293;DHT22;67256;51.154;4.164;2024-01-11T15:15:57;1.40;95.90
76293;DHT22;67256;51.154;4.164;2024-01-11T15:18:23;1.50;95.50
76293;DHT22;67256;51.154;4.164;2024-01-11T15:20:48;1.50;95.50
76293;DHT22;67256;51.154;4.164;2024-01-11T15:23:15;1.60;95.60
76293;DHT22;67256;51.154;4.164;2024-01-11T15:25:41;1.70;95.50
76293;DHT22;67256;51.154;4.164;2024-01-11T15:28:07;1.70;95.40
76293;DHT22;67256;51.154;4.164;2024-01-11T15:30:33;1.70;95.60
76293;DHT22;67256;51.154;4.164;2024-01-11T15:33:00;1.70;95.70
76293;DHT22;67256;51.154;4.164;2024-01-11T15:35:25;1.60;96.00